createdAt,value
2019-05-06T00:00:26.311Z,95431.97
2019-05-06T00:02:55.543Z,95431.16
2019-05-06T00:05:25.591Z,95428.45
2019-05-06T00:07:55.059Z,95432.16
2019-05-06T00:10:27.843Z,95429.17
2019-05-06T00:12:57.155Z,95433.45
2019-05-06T00:15:26.858Z,95429.36
2019-05-06T00:17:56.078Z,95434.77
2019-05-06T00:20:25.583Z,95437.23
2019-05-06T00:22:57.975Z,95431.54
2019-05-06T00:25:35.843Z,95432.16
2019-05-06T00:28:24.589Z,95433.15
2019-05-06T00:31:08.597Z,95436.52
2019-05-06T00:33:26.463Z,95435.44
2019-05-06T00:35:55.776Z,95431.31
2019-05-06T00:38:25.287Z,95435.62
2019-05-06T00:40:58.161Z,95432.31
2019-05-06T00:43:27.646Z,95437.61
2019-05-06T00:45:57.094Z,95437.27
2019-05-06T00:48:26.599Z,95439.25
2019-05-06T00:50:55.919Z,95436.36
2019-05-06T00:53:26.819Z,95429.98
2019-05-06T00:55:55.997Z,95435.56
2019-05-06T00:58:25.232Z,95441.19
2019-05-06T01:00:54.677Z,95438.27
2019-05-06T01:03:24.104Z,95440.09
2019-05-06T01:05:54.245Z,95440.36
2019-05-06T01:08:24.285Z,95442.03
2019-05-06T01:10:54.479Z,95443.55
2019-05-06T01:13:30.484Z,95444.63
2019-05-06T01:15:59.675Z,95446.59
2019-05-06T01:18:28.912Z,95446.48
2019-05-06T01:21:10.399Z,95449.05
2019-05-06T01:23:44.229Z,95450.61
2019-05-06T01:26:15.145Z,95449.63
2019-05-06T01:28:45.983Z,95452.61
2019-05-06T01:31:15.243Z,95451.87
2019-05-06T01:33:45.294Z,95452.06
2019-05-06T01:36:14.653Z,95457.32
2019-05-06T01:39:06.148Z,95459.73
2019-05-06T01:41:54.297Z,95458.61
2019-05-06T01:44:24.433Z,95459.92
2019-05-06T01:46:54.192Z,95460.86
2019-05-06T01:49:24.539Z,95460.22
2019-05-06T01:51:54.597Z,95463.93
2019-05-06T01:54:24.929Z,95463.64
2019-05-06T01:56:54.655Z,95466.05
2019-05-06T01:59:24.640Z,95469.38
2019-05-06T02:02:00.082Z,95465.23
2019-05-06T02:27:16.205Z,95478.23
2019-05-06T02:30:00.135Z,95478.79
2019-05-06T02:32:39.139Z,95487.81
2019-05-06T02:35:27.456Z,95485.06
2019-05-06T02:37:56.630Z,95486.00
2019-05-06T02:40:27.485Z,95492.97
2019-05-06T02:42:56.713Z,95489.13
2019-05-06T02:45:26.027Z,95492.62
2019-05-06T02:48:23.204Z,95495.02
2019-05-06T02:51:17.411Z,95494.73
2019-05-06T02:53:46.912Z,95495.64
2019-05-06T02:56:16.153Z,95496.13
2019-05-06T02:58:45.327Z,95498.14
2019-05-06T03:01:14.567Z,95501.63
2019-05-06T03:03:44.020Z,95500.62
2019-05-06T03:06:13.397Z,95500.17
2019-05-06T03:08:43.450Z,95501.63
2019-05-06T03:11:13.757Z,95505.48
2019-05-06T03:13:44.183Z,95507.62
2019-05-06T03:16:14.357Z,95512.05
2019-05-06T03:18:44.041Z,95510.58
2019-05-06T03:21:36.711Z,95517.00
2019-05-06T03:24:23.715Z,95518.50
2019-05-06T03:26:56.750Z,95517.27
2019-05-06T03:29:25.327Z,95520.59
2019-05-06T03:31:56.306Z,95520.97
2019-05-06T03:34:48.994Z,95530.91
2019-05-06T03:36:57.341Z,95525.58
2019-05-06T03:39:26.600Z,95525.13
2019-05-06T03:41:56.329Z,95526.02
2019-05-06T03:44:25.865Z,95524.73
2019-05-06T03:47:14.032Z,95533.02
2019-05-06T03:49:49.781Z,95535.61
2019-05-06T03:52:16.954Z,95533.45
2019-05-06T03:54:47.281Z,95538.19
2019-05-06T03:57:18.053Z,95539.18
2019-05-06T03:59:49.037Z,95540.39
2019-05-06T04:02:18.680Z,95537.25
2019-05-06T04:04:47.957Z,95542.22
2019-05-06T04:07:18.218Z,95540.84
2019-05-06T04:09:47.700Z,95538.65
2019-05-06T04:12:18.281Z,95539.00
2019-05-06T04:14:47.554Z,95551.28
2019-05-06T04:17:36.954Z,95546.66
2019-05-06T04:20:34.741Z,95555.48
2019-05-06T04:23:13.370Z,95556.80
2019-05-06T04:25:54.005Z,95557.98
2019-05-06T04:28:25.830Z,95558.67
2019-05-06T04:30:55.364Z,95564.39
2019-05-06T04:33:24.765Z,95569.17
2019-05-06T04:35:54.389Z,95568.34
2019-05-06T04:38:24.219Z,95561.66
2019-05-06T04:40:54.366Z,95568.17
2019-05-06T04:43:26.887Z,95565.59
2019-05-06T04:45:54.545Z,95573.85
2019-05-06T04:48:24.194Z,95572.69
2019-05-06T04:50:54.205Z,95572.06
2019-05-06T04:53:26.861Z,95579.44
2019-05-06T04:55:54.994Z,95577.59
2019-05-06T04:58:24.326Z,95583.13
2019-05-06T05:00:53.973Z,95578.61
2019-05-06T05:03:23.224Z,95579.56
2019-05-06T05:05:53.331Z,95586.15
2019-05-06T05:08:26.754Z,95582.23
2019-05-06T05:11:04.177Z,95584.77
2019-05-06T05:13:53.215Z,95593.37
2019-05-06T05:16:59.272Z,95593.82
2019-05-06T05:19:29.868Z,95589.83
2019-05-06T05:22:06.038Z,95590.52
2019-05-06T05:24:36.475Z,95587.20
2019-05-06T05:27:06.269Z,95595.36
2019-05-06T05:29:35.745Z,95594.62
2019-05-06T05:32:05.445Z,95595.44
2019-05-06T05:34:39.919Z,95596.34
2019-05-06T05:37:06.117Z,95591.29
2019-05-06T05:39:35.494Z,95597.81
2019-05-06T05:42:14.145Z,95601.31
2019-05-06T05:44:44.003Z,95605.96
2019-05-06T05:47:13.326Z,95605.77
2019-05-06T05:50:02.815Z,95607.62
2019-05-06T05:52:32.906Z,95607.70
2019-05-06T05:55:02.907Z,95612.48
2019-05-06T05:57:33.018Z,95608.43
2019-05-06T06:00:03.902Z,95607.48
2019-05-06T06:02:33.861Z,95612.42
2019-05-06T06:05:03.126Z,95611.86
2019-05-06T06:07:32.865Z,95614.27
2019-05-06T06:10:13.361Z,95609.23
2019-05-06T06:12:42.950Z,95613.89
2019-05-06T06:15:29.073Z,95603.93
2019-05-06T06:18:29.718Z,95608.92
2019-05-06T06:21:18.714Z,95608.98
2019-05-06T06:23:42.658Z,95610.20
2019-05-06T06:26:12.178Z,95606.29
2019-05-06T06:28:42.635Z,95610.86
2019-05-06T06:31:36.770Z,95611.81
2019-05-06T06:34:24.962Z,95614.24
2019-05-06T06:37:13.317Z,95613.48
2019-05-06T06:39:44.104Z,95608.27
2019-05-06T06:42:13.279Z,95610.83
2019-05-06T06:44:42.511Z,95617.66
2019-05-06T06:47:12.971Z,95615.28
2019-05-06T06:49:42.686Z,95614.67
2019-05-06T06:52:14.707Z,95612.33
2019-05-06T06:54:43.847Z,95607.55
2019-05-06T06:57:34.914Z,95609.75
2019-05-06T07:00:12.683Z,95614.69
2019-05-06T07:02:46.053Z,95613.16
2019-05-06T07:05:42.403Z,95614.73
2019-05-06T07:08:12.723Z,95615.91
2019-05-06T07:10:45.094Z,95619.05
2019-05-06T07:13:16.697Z,95614.75
2019-05-06T07:15:46.564Z,95616.05
2019-05-06T07:18:16.071Z,95616.42
2019-05-06T07:21:05.941Z,95615.80
2019-05-06T07:23:36.065Z,95614.75
2019-05-06T07:26:05.448Z,95617.39
2019-05-06T07:28:34.687Z,95620.27
2019-05-06T07:31:17.436Z,95622.58
2019-05-06T07:33:35.118Z,95619.78
2019-05-06T07:36:04.575Z,95619.81
2019-05-06T07:38:34.175Z,95617.34
2019-05-06T07:41:14.747Z,95619.81
2019-05-06T07:44:08.219Z,95610.36
2019-05-06T07:46:44.299Z,95610.61
2019-05-06T07:49:13.534Z,95614.69
2019-05-06T07:51:42.692Z,95615.38
2019-05-06T07:54:12.355Z,95618.87
2019-05-06T07:56:42.866Z,95627.03
2019-05-06T07:59:12.743Z,95627.61
2019-05-06T08:01:43.837Z,95625.16
2019-05-06T08:04:13.570Z,95623.00
2019-05-06T08:06:43.031Z,95621.26
2019-05-06T08:09:13.215Z,95614.05
2019-05-06T08:11:42.724Z,95617.08
2019-05-06T08:14:13.015Z,95614.73
2019-05-06T08:16:48.439Z,95608.30
2019-05-06T08:19:17.687Z,95608.56
2019-05-06T08:21:49.295Z,95606.93
2019-05-06T08:24:18.742Z,95608.11
2019-05-06T08:26:47.976Z,95617.00
2019-05-06T08:29:17.163Z,95608.72
2019-05-06T08:31:46.759Z,95612.44
2019-05-06T08:34:16.229Z,95609.66
2019-05-06T08:37:09.320Z,95611.74
2019-05-06T08:39:38.828Z,95610.48
2019-05-06T08:42:08.350Z,95607.32
2019-05-06T08:44:37.595Z,95609.17
2019-05-06T08:47:06.775Z,95607.20
2019-05-06T08:49:53.993Z,95606.41
2019-05-06T08:52:27.118Z,95598.09
2019-05-06T08:54:57.823Z,95594.35
2019-05-06T08:57:27.043Z,95593.92
2019-05-06T08:59:56.221Z,95601.50
2019-05-06T09:02:25.738Z,95600.83
2019-05-06T09:04:55.027Z,95595.87
2019-05-06T09:07:24.268Z,95595.73
2019-05-06T09:09:53.760Z,95602.20
2019-05-06T09:12:23.001Z,95608.86
2019-05-06T09:14:53.222Z,95609.66
2019-05-06T09:17:22.723Z,95604.73
2019-05-06T09:19:53.488Z,95609.57
2019-05-06T09:22:23.540Z,95609.08
2019-05-06T09:24:53.196Z,95619.61
2019-05-06T09:27:42.260Z,95615.22
2019-05-06T09:30:16.570Z,95605.66
2019-05-06T09:32:45.805Z,95598.27
2019-05-06T09:35:15.199Z,95599.87
2019-05-06T09:37:45.257Z,95605.83
2019-05-06T09:40:14.642Z,95602.43
2019-05-06T09:42:43.907Z,95604.66
2019-05-06T09:45:13.192Z,95606.70
2019-05-06T09:48:03.630Z,95606.97
2019-05-06T09:50:38.367Z,95600.02
2019-05-06T09:53:09.251Z,95593.97
2019-05-06T09:55:57.508Z,95602.93
2019-05-06T09:58:27.036Z,95599.27
2019-05-06T10:00:57.985Z,95595.45
2019-05-06T10:03:27.219Z,95602.80
2019-05-06T10:05:56.468Z,95601.87
2019-05-06T10:08:25.714Z,95600.10
2019-05-06T10:10:59.555Z,95603.37
2019-05-06T10:13:26.412Z,95601.67
2019-05-06T10:15:57.616Z,95600.47
2019-05-06T10:18:26.651Z,95597.88
2019-05-06T10:20:56.162Z,95599.31
2019-05-06T10:23:25.346Z,95595.31
2019-05-06T10:25:54.860Z,95593.78
2019-05-06T10:28:41.200Z,95596.30
2019-05-06T10:31:12.841Z,95607.30
2019-05-06T10:33:59.439Z,95599.73
2019-05-06T10:36:34.436Z,95604.84
2019-05-06T10:39:08.920Z,95609.57
2019-05-06T10:41:42.205Z,95610.25
2019-05-06T10:44:22.565Z,95604.02
2019-05-06T10:46:52.665Z,95610.28
2019-05-06T10:49:22.661Z,95604.95
2019-05-06T10:52:08.393Z,95603.66
2019-05-06T10:54:37.572Z,95607.69
2019-05-06T10:57:29.672Z,95615.83
2019-05-06T10:59:59.169Z,95613.70
2019-05-06T11:02:45.221Z,95613.47
2019-05-06T11:05:14.565Z,95612.38
2019-05-06T11:07:43.808Z,95617.22
2019-05-06T11:10:24.339Z,95612.63
2019-05-06T11:12:44.425Z,95611.81
2019-05-06T11:15:14.035Z,95613.34
2019-05-06T11:17:43.694Z,95605.63
2019-05-06T11:20:14.181Z,95613.06
2019-05-06T11:22:43.741Z,95608.70
2019-05-06T11:25:13.137Z,95609.17
2019-05-06T11:27:45.236Z,95612.00
2019-05-06T11:30:27.955Z,95607.16
2019-05-06T11:33:13.259Z,95611.57
2019-05-06T11:35:58.159Z,95610.39
2019-05-06T11:38:27.626Z,95617.95
2019-05-06T11:40:57.146Z,95615.36
2019-05-06T11:43:26.638Z,95616.89
2019-05-06T11:45:56.139Z,95614.41
2019-05-06T11:48:25.668Z,95614.36
2019-05-06T11:50:58.634Z,95611.41
2019-05-06T11:53:27.824Z,95608.91
2019-05-06T11:55:57.127Z,95613.14
2019-05-06T11:58:43.174Z,95615.23
2019-05-06T12:01:18.203Z,95619.48
2019-05-06T12:03:47.509Z,95616.75
2019-05-06T12:06:16.740Z,95620.33
2019-05-06T12:08:45.974Z,95619.94
2019-05-06T12:11:15.155Z,95630.34
2019-05-06T12:13:44.799Z,95625.16
2019-05-06T12:16:14.399Z,95627.98
2019-05-06T12:18:43.723Z,95626.69
2019-05-06T12:21:18.909Z,95628.30
2019-05-06T12:23:45.069Z,95632.44
2019-05-06T12:26:14.368Z,95628.07
2019-05-06T12:28:43.798Z,95631.11
2019-05-06T12:31:13.055Z,95629.70
2019-05-06T12:33:46.793Z,95632.34
2019-05-06T12:36:20.872Z,95635.53
2019-05-06T12:39:08.372Z,95640.25
2019-05-06T12:41:46.334Z,95634.95
2019-05-06T12:44:15.743Z,95642.52
2019-05-06T12:47:03.888Z,95645.45
2019-05-06T12:49:33.511Z,95648.63
2019-05-06T12:52:02.699Z,95646.74
2019-05-06T12:54:33.478Z,95646.50
2019-05-06T12:57:03.488Z,95647.36
2019-05-06T12:59:32.768Z,95649.73
2019-05-06T13:02:02.813Z,95649.58
2019-05-06T13:04:49.524Z,95657.49
2019-05-06T13:07:03.334Z,95654.26
2019-05-06T13:09:33.156Z,95651.11
2019-05-06T13:12:03.738Z,95652.06
2019-05-06T13:14:33.432Z,95650.81
2019-05-06T13:17:02.961Z,95652.20
2019-05-06T13:19:32.434Z,95644.73
2019-05-06T13:22:03.625Z,95650.31
2019-05-06T13:24:32.888Z,95642.49
2019-05-06T13:27:02.769Z,95638.45
2019-05-06T13:29:35.567Z,95633.95
2019-05-06T13:32:06.548Z,95635.28
2019-05-06T13:34:35.782Z,95631.94
2019-05-06T13:37:05.069Z,95635.70
2019-05-06T13:39:34.379Z,95634.75
2019-05-06T13:42:03.598Z,95626.95
2019-05-06T13:44:32.816Z,95620.69
2019-05-06T13:47:03.050Z,95625.15
2019-05-06T13:50:03.541Z,95624.87
2019-05-06T13:52:38.367Z,95623.16
2019-05-06T13:55:07.789Z,95621.68
2019-05-06T13:57:39.255Z,95620.27
2019-05-06T14:00:09.706Z,95628.12
2019-05-06T14:02:53.679Z,95626.59
2019-05-06T14:05:23.271Z,95634.77
2019-05-06T14:07:52.960Z,95626.95
2019-05-06T14:10:22.365Z,95635.05
2019-05-06T14:12:53.162Z,95634.95
2019-05-06T14:15:23.348Z,95631.63
2019-05-06T14:17:53.396Z,95637.40
2019-05-06T14:20:22.717Z,95640.31
2019-05-06T14:22:52.608Z,95641.25
2019-05-06T14:25:39.539Z,95640.55
2019-05-06T14:28:26.481Z,95634.28
2019-05-06T14:30:59.661Z,95637.72
2019-05-06T14:33:29.124Z,95646.98
2019-05-06T14:35:58.733Z,95641.23
2019-05-06T14:38:28.091Z,95647.92
2019-05-06T14:41:08.072Z,95650.64
2019-05-06T14:43:36.828Z,95641.42
2019-05-06T14:46:06.065Z,95652.19
2019-05-06T14:48:35.298Z,95648.64
2019-05-06T14:51:04.522Z,95645.70
2019-05-06T14:53:34.034Z,95648.44
2019-05-06T14:56:09.648Z,95653.49
2019-05-06T14:58:39.225Z,95651.81
2019-05-06T15:01:08.687Z,95653.49
2019-05-06T15:03:38.205Z,95652.30
2019-05-06T15:06:07.453Z,95661.03
2019-05-06T15:08:36.951Z,95656.05
2019-05-06T15:11:06.136Z,95647.74
2019-05-06T15:13:35.381Z,95654.20
2019-05-06T15:16:04.569Z,95649.26
2019-05-06T15:18:33.821Z,95653.12
2019-05-06T15:21:29.051Z,95666.63
2019-05-06T15:23:33.914Z,95669.27
2019-05-06T15:26:03.169Z,95662.55
2019-05-06T15:28:33.801Z,95666.47
2019-05-06T15:31:12.338Z,95661.98
2019-05-06T15:33:43.507Z,95665.78
2019-05-06T15:36:27.696Z,95668.13
2019-05-06T15:38:56.924Z,95668.23
2019-05-06T15:41:26.164Z,95664.47
2019-05-06T15:43:55.352Z,95666.11
2019-05-06T15:46:24.869Z,95663.87
2019-05-06T15:48:54.692Z,95670.38
2019-05-06T15:51:34.903Z,95668.01
2019-05-06T15:54:08.463Z,95668.02
2019-05-06T15:56:37.995Z,95665.81
2019-05-06T15:59:07.490Z,95672.16
2019-05-06T16:01:36.739Z,95668.84
2019-05-06T16:04:06.549Z,95673.22
2019-05-06T16:06:35.869Z,95669.55
2019-05-06T16:09:06.356Z,95671.78
2019-05-06T16:11:36.330Z,95665.16
2019-05-06T16:14:05.840Z,95667.98
2019-05-06T16:16:35.032Z,95667.49
2019-05-06T16:19:04.517Z,95667.41
2019-05-06T16:21:33.968Z,95676.98
2019-05-06T16:24:14.079Z,95673.78
2019-05-06T16:26:45.698Z,95671.91
2019-05-06T16:29:14.644Z,95676.49
2019-05-06T16:31:43.954Z,95669.27
2019-05-06T16:34:14.640Z,95670.12
2019-05-06T16:36:43.982Z,95668.76
2019-05-06T16:39:13.648Z,95673.47
2019-05-06T16:41:44.750Z,95677.02
2019-05-06T16:44:14.208Z,95679.73
2019-05-06T16:46:43.405Z,95677.94
2019-05-06T16:49:14.199Z,95673.09
2019-05-06T16:51:44.246Z,95673.22
2019-05-06T16:54:13.487Z,95670.09
2019-05-06T16:57:05.403Z,95673.60
2019-05-06T16:59:34.600Z,95676.88
2019-05-06T17:02:13.775Z,95674.83
2019-05-06T17:04:48.440Z,95669.77
2019-05-06T17:07:17.727Z,95674.97
2019-05-06T17:09:47.384Z,95680.69
2019-05-06T17:12:16.624Z,95677.42
2019-05-06T17:14:45.810Z,95686.23
2019-05-06T17:17:15.070Z,95682.71
2019-05-06T17:19:44.264Z,95688.03
2019-05-06T17:22:13.606Z,95690.55
2019-05-06T17:24:43.094Z,95700.52
2019-05-06T17:27:12.277Z,95702.58
2019-05-06T17:30:00.478Z,95699.66
2019-05-06T17:32:35.688Z,95700.35
2019-05-06T17:35:07.529Z,95696.45
2019-05-06T17:38:08.378Z,95697.97
2019-05-06T17:40:37.566Z,95706.16
2019-05-06T17:43:06.837Z,95707.23
2019-05-06T17:45:58.285Z,95711.75
2019-05-06T17:48:39.693Z,95715.23
2019-05-06T17:51:14.093Z,95717.65
2019-05-06T17:53:45.716Z,95714.77
2019-05-06T17:56:14.899Z,95717.99
2019-05-06T17:58:44.137Z,95717.93
2019-05-06T18:01:14.522Z,95717.28
2019-05-06T18:03:43.703Z,95712.13
2019-05-06T18:06:14.187Z,95717.73
2019-05-06T18:08:43.666Z,95718.69
2019-05-06T18:11:13.138Z,95721.69
2019-05-06T18:13:42.545Z,95725.73
2019-05-06T18:16:13.218Z,95729.69
2019-05-06T18:18:42.452Z,95731.84
2019-05-06T18:21:12.458Z,95734.77
2019-05-06T18:23:41.923Z,95731.42
2019-05-06T18:26:11.190Z,95741.07
2019-05-06T18:28:40.467Z,95746.00
2019-05-06T18:31:10.008Z,95740.36
2019-05-06T18:33:39.329Z,95752.23
2019-05-06T18:36:08.577Z,95753.72
2019-05-06T18:38:38.049Z,95752.32
2019-05-06T18:41:07.915Z,95755.58
2019-05-06T18:43:37.892Z,95756.87
2019-05-06T18:46:07.130Z,95761.89
2019-05-06T18:48:36.310Z,95767.06
2019-05-06T18:51:05.831Z,95769.53
2019-05-06T18:53:35.311Z,95775.30
2019-05-06T18:56:05.175Z,95775.45
2019-05-06T18:58:34.672Z,95780.08
2019-05-06T19:01:04.317Z,95787.84
2019-05-06T19:03:52.746Z,95783.02
2019-05-06T19:06:23.220Z,95790.22
2019-05-06T19:08:59.314Z,95790.27
2019-05-06T19:11:28.581Z,95788.92
2019-05-06T19:13:58.022Z,95794.56
2019-05-06T19:16:27.504Z,95798.36
2019-05-06T19:18:56.749Z,95803.05
2019-05-06T19:21:25.928Z,95807.34
2019-05-06T19:23:55.158Z,95805.20
2019-05-06T19:26:24.347Z,95814.45
2019-05-06T19:28:53.905Z,95814.52
2019-05-06T19:31:23.228Z,95822.30
2019-05-06T19:33:52.769Z,95816.47
2019-05-06T19:36:23.475Z,95817.02
2019-05-06T19:38:52.910Z,95822.20
2019-05-06T19:41:22.711Z,95820.47
2019-05-06T19:43:52.447Z,95826.02
2019-05-06T19:46:21.664Z,95821.03
2019-05-06T19:48:52.372Z,95828.34
2019-05-06T19:51:22.550Z,95831.61
2019-05-06T19:53:51.917Z,95831.39
2019-05-06T19:56:23.168Z,95831.59
2019-05-06T19:58:52.648Z,95828.91
2019-05-06T20:01:22.906Z,95825.32
2019-05-06T20:03:52.907Z,95831.61
2019-05-06T20:06:39.380Z,95831.39
2019-05-06T20:09:46.707Z,95829.28
2019-05-06T20:12:58.492Z,95825.80
2019-05-06T20:15:33.071Z,95828.11
2019-05-06T20:18:03.041Z,95829.17
2019-05-06T20:20:34.858Z,95831.03
2019-05-06T20:23:03.455Z,95832.78
2019-05-06T20:25:32.924Z,95828.95
2019-05-06T20:28:02.464Z,95824.17
2019-05-06T20:30:32.696Z,95820.47
2019-05-06T20:33:02.270Z,95816.25
2019-05-06T20:35:32.242Z,95821.61
2019-05-06T20:38:02.749Z,95822.27
2019-05-06T20:40:32.922Z,95815.91
2019-05-06T20:43:14.237Z,95818.80
2019-05-06T20:45:35.385Z,95810.66
2019-05-06T20:48:04.097Z,95812.89
2019-05-06T20:50:33.362Z,95813.00
2019-05-06T20:53:02.593Z,95813.28
2019-05-06T20:55:35.282Z,95821.11
2019-05-06T20:58:02.867Z,95814.89
2019-05-06T21:00:33.445Z,95809.58
2019-05-06T21:03:02.837Z,95809.58
2019-05-06T21:05:32.409Z,95804.92
2019-05-06T21:08:02.354Z,95815.17
2019-05-06T21:10:32.953Z,95814.54
2019-05-06T21:13:02.553Z,95805.70
2019-05-06T21:15:32.459Z,95812.52
2019-05-06T21:18:04.207Z,95806.08
2019-05-06T21:20:33.205Z,95811.06
2019-05-06T21:23:02.559Z,95815.27
2019-05-06T21:25:32.246Z,95807.89
2019-05-06T21:28:02.872Z,95810.59
2019-05-06T21:30:32.617Z,95813.27
2019-05-06T21:33:01.780Z,95810.59
2019-05-06T21:35:33.181Z,95805.31
2019-05-06T21:38:02.627Z,95806.81
2019-05-06T21:40:32.421Z,95802.27
2019-05-06T21:43:02.240Z,95805.98
2019-05-06T21:45:33.078Z,95799.96
2019-05-06T21:48:03.161Z,95798.28
2019-05-06T21:50:33.191Z,95799.60
2019-05-06T21:53:02.849Z,95797.31
2019-05-06T21:55:32.561Z,95794.35
2019-05-06T21:58:02.328Z,95796.92
2019-05-06T22:00:43.382Z,95798.77
2019-05-06T22:03:13.418Z,95792.98
2019-05-06T22:05:43.035Z,95793.34
2019-05-06T22:08:13.002Z,95790.02
2019-05-06T22:10:42.388Z,95795.09
2019-05-06T22:13:14.307Z,95792.05
2019-05-06T22:15:42.543Z,95787.79
2019-05-06T22:18:12.484Z,95788.17
2019-05-06T22:20:59.200Z,95785.87
2019-05-06T22:23:47.804Z,95786.06
2019-05-06T22:26:17.299Z,95782.25
2019-05-06T22:28:46.541Z,95785.37
2019-05-06T22:31:16.042Z,95778.13
2019-05-06T22:33:45.252Z,95773.96
2019-05-06T22:36:14.433Z,95776.02
2019-05-06T22:38:44.296Z,95774.97
2019-05-06T22:41:13.555Z,95767.61
2019-05-06T22:43:42.783Z,95768.91
2019-05-06T22:46:12.402Z,95766.88
2019-05-06T22:48:43.361Z,95769.26
2019-05-06T22:51:12.662Z,95768.98
2019-05-06T22:53:42.612Z,95765.02
2019-05-06T22:56:14.330Z,95770.45
2019-05-06T22:58:43.570Z,95767.31
2019-05-06T23:01:32.344Z,95764.45
2019-05-06T23:04:02.113Z,95762.78
2019-05-06T23:06:32.932Z,95761.32
2019-05-06T23:09:02.636Z,95766.39
2019-05-06T23:11:32.767Z,95759.86
2019-05-06T23:14:02.843Z,95764.11
2019-05-06T23:16:32.860Z,95764.47
2019-05-06T23:19:03.016Z,95759.69
2019-05-06T23:21:33.760Z,95762.17
2019-05-06T23:24:03.394Z,95755.05
2019-05-06T23:26:32.624Z,95752.02
2019-05-06T23:29:02.551Z,95753.13
2019-05-06T23:31:33.286Z,95748.63
2019-05-06T23:34:04.986Z,95752.50
2019-05-06T23:37:26.297Z,95749.61
2019-05-06T23:40:42.558Z,95754.42
2019-05-06T23:43:47.021Z,95751.45
2019-05-06T23:46:52.833Z,95754.32
2019-05-06T23:49:57.442Z,95750.55
2019-05-06T23:53:02.929Z,95745.48
2019-05-06T23:56:08.042Z,95738.75
2019-05-06T23:58:37.218Z,95742.08
